sensor_id;sensor_type;location;lat;lon;timestamp;temperature;humidity
21801;DHT22;11062;51.164;16.924;2023-12-28T00:01:22;30.30;33.30
21801;DHT22;11062;51.164;16.924;2023-12-28T00:03:48;30.30;33.30
21801;DHT22;11062;51.164;16.924;2023-12-28T00:06:13;30.30;33.20
21801;DHT22;11062;51.164;16.924;2023-12-28T00:08:40;30.20;33.30
21801;DHT22;11062;51.164;16.924;2023-12-28T00:11:06;30.20;33.30
21801;DHT22;11062;51.164;16.924;2023-12-28T00:13:31;30.20;33.30
21801;DHT22;11062;51.164;16.924;2023-12-28T00:15:57;30.20;33.40
21801;DHT22;11062;51.164;16.924;2023-12-28T00:18:23;30.20;33.30
21801;DHT22;11062;51.164;16.924;2023-12-28T00:20:49;30.20;33.30
21801;DHT22;11062;51.164;16.924;2023-12-28T00:23:15;30.30;33.30
21801;DHT22;11062;51.164;16.924;2023-12-28T00:25:41;30.10;33.20
21801;DHT22;11062;51.164;16.924;2023-12-28T00:28:06;30.20;33.30
21801;DHT22;11062;51.164;16.924;2023-12-28T00:30:32;30.10;33.40
21801;DHT22;11062;51.164;16.924;2023-12-28T00:32:58;30.10;33.40
21801;DHT22;11062;51.164;16.924;2023-12-28T00:35:24;30.10;33.40
21801;DHT22;11062;51.164;16.924;2023-12-28T00:37:49;30.10;33.40
21801;DHT22;11062;51.164;16.924;2023-12-28T00:40:15;30.00;33.40
21801;DHT22;11062;51.164;16.924;2023-12-28T00:42:41;30.10;33.50
21801;DHT22;11062;51.164;16.924;2023-12-28T00:45:08;30.00;33.40
21801;DHT22;11062;51.164;16.924;2023-12-28T00:47:34;30.10;33.40
21801;DHT22;11062;51.164;16.924;2023-12-28T00:49:59;30.00;33.30
21801;DHT22;11062;51.164;16.924;2023-12-28T00:52:25;30.00;33.40
21801;DHT22;11062;51.164;16.924;2023-12-28T00:54:51;30.00;33.30
21801;DHT22;11062;51.164;16.924;2023-12-28T00:57:17;30.00;33.30
21801;DHT22;11062;51.164;16.924;2023-12-28T00:59:42;30.00;33.30
21801;DHT22;11062;51.164;16.924;2023-12-28T01:02:09;30.10;33.20
21801;DHT22;11062;51.164;16.924;2023-12-28T01:04:35;30.10;33.20
21801;DHT22;11062;51.164;16.924;2023-12-28T01:07:01;30.20;33.20
21801;DHT22;11062;51.164;16.924;2023-12-28T01:09:28;30.20;33.10
21801;DHT22;11062;51.164;16.924;2023-12-28T01:11:54;30.20;33.00
21801;DHT22;11062;51.164;16.924;2023-12-28T01:14:19;30.20;33.00
21801;DHT22;11062;51.164;16.924;2023-12-28T01:16:45;30.30;32.90
21801;DHT22;11062;51.164;16.924;2023-12-28T01:19:11;30.20;32.80
21801;DHT22;11062;51.164;16.924;2023-12-28T01:21:37;30.20;32.90
21801;DHT22;11062;51.164;16.924;2023-12-28T01:24:03;30.10;32.80
21801;DHT22;11062;51.164;16.924;2023-12-28T01:26:28;30.10;32.90
21801;DHT22;11062;51.164;16.924;2023-12-28T01:28:54;30.10;32.80
21801;DHT22;11062;51.164;16.924;2023-12-28T01:31:20;30.00;32.80
21801;DHT22;11062;51.164;16.924;2023-12-28T01:33:46;30.00;32.80
21801;DHT22;11062;51.164;16.924;2023-12-28T01:36:18;29.90;32.80
21801;DHT22;11062;51.164;16.924;2023-12-28T01:38:45;29.90;32.90
21801;DHT22;11062;51.164;16.924;2023-12-28T01:41:11;29.80;32.70
21801;DHT22;11062;51.164;16.924;2023-12-28T01:43:38;29.80;32.80
21801;DHT22;11062;51.164;16.924;2023-12-28T01:46:05;29.70;32.80
21801;DHT22;11062;51.164;16.924;2023-12-28T01:48:32;29.70;32.80
21801;DHT22;11062;51.164;16.924;2023-12-28T01:50:58;29.70;32.80
21801;DHT22;11062;51.164;16.924;2023-12-28T01:53:24;29.60;32.80
21801;DHT22;11062;51.164;16.924;2023-12-28T01:55:50;29.60;32.90
21801;DHT22;11062;51.164;16.924;2023-12-28T01:58:16;29.50;32.80
21801;DHT22;11062;51.164;16.924;2023-12-28T02:00:43;29.50;32.80
21801;DHT22;11062;51.164;16.924;2023-12-28T02:03:10;29.50;32.80
21801;DHT22;11062;51.164;16.924;2023-12-28T02:05:36;29.40;32.80
21801;DHT22;11062;51.164;16.924;2023-12-28T02:08:04;29.40;32.80
21801;DHT22;11062;51.164;16.924;2023-12-28T02:10:30;29.40;32.80
21801;DHT22;11062;51.164;16.924;2023-12-28T02:12:56;29.30;32.70
21801;DHT22;11062;51.164;16.924;2023-12-28T02:15:22;29.30;32.80
21801;DHT22;11062;51.164;16.924;2023-12-28T02:18:11;29.30;32.70
21801;DHT22;11062;51.164;16.924;2023-12-28T02:20:39;29.30;32.80
21801;DHT22;11062;51.164;16.924;2023-12-28T02:23:05;29.20;32.80
21801;DHT22;11062;51.164;16.924;2023-12-28T02:25:32;29.20;32.90
21801;DHT22;11062;51.164;16.924;2023-12-28T02:27:58;29.10;32.80
21801;DHT22;11062;51.164;16.924;2023-12-28T02:30:24;29.10;32.90
21801;DHT22;11062;51.164;16.924;2023-12-28T02:33:15;29.10;32.90
21801;DHT22;11062;51.164;16.924;2023-12-28T02:35:51;29.10;32.90
21801;DHT22;11062;51.164;16.924;2023-12-28T02:38:18;29.10;33.10
21801;DHT22;11062;51.164;16.924;2023-12-28T02:40:45;29.00;33.00
21801;DHT22;11062;51.164;16.924;2023-12-28T02:43:13;29.00;32.90
21801;DHT22;11062;51.164;16.924;2023-12-28T02:45:39;29.00;33.00
21801;DHT22;11062;51.164;16.924;2023-12-28T02:48:05;29.00;32.90
21801;DHT22;11062;51.164;16.924;2023-12-28T02:50:32;29.00;32.80
21801;DHT22;11062;51.164;16.924;2023-12-28T02:52:59;28.90;32.90
21801;DHT22;11062;51.164;16.924;2023-12-28T02:55:25;28.90;32.70
21801;DHT22;11062;51.164;16.924;2023-12-28T02:57:54;28.90;32.70
21801;DHT22;11062;51.164;16.924;2023-12-28T03:00:26;28.90;32.60
21801;DHT22;11062;51.164;16.924;2023-12-28T03:02:51;28.80;32.60
21801;DHT22;11062;51.164;16.924;2023-12-28T03:05:17;28.80;32.60
21801;DHT22;11062;51.164;16.924;2023-12-28T03:07:43;28.80;33.00
21801;DHT22;11062;51.164;16.924;2023-12-28T03:10:09;28.70;32.80
21801;DHT22;11062;51.164;16.924;2023-12-28T03:12:36;28.70;32.80
21801;DHT22;11062;51.164;16.924;2023-12-28T03:15:03;28.60;32.90
21801;DHT22;11062;51.164;16.924;2023-12-28T03:17:29;28.60;33.00
21801;DHT22;11062;51.164;16.924;2023-12-28T03:19:57;28.60;33.10
21801;DHT22;11062;51.164;16.924;2023-12-28T03:22:23;28.60;33.30
21801;DHT22;11062;51.164;16.924;2023-12-28T03:24:49;28.50;32.90
21801;DHT22;11062;51.164;16.924;2023-12-28T03:27:15;28.50;32.70
21801;DHT22;11062;51.164;16.924;2023-12-28T03:29:41;28.50;32.90
21801;DHT22;11062;51.164;16.924;2023-12-28T03:32:08;28.50;32.70
21801;DHT22;11062;51.164;16.924;2023-12-28T03:34:34;28.50;32.70
21801;DHT22;11062;51.164;16.924;2023-12-28T03:37:00;28.50;32.90
21801;DHT22;11062;51.164;16.924;2023-12-28T03:39:26;28.50;33.00
21801;DHT22;11062;51.164;16.924;2023-12-28T03:41:51;28.40;33.00
21801;DHT22;11062;51.164;16.924;2023-12-28T03:44:21;28.40;32.80
21801;DHT22;11062;51.164;16.924;2023-12-28T03:46:50;28.40;32.70
21801;DHT22;11062;51.164;16.924;2023-12-28T03:49:20;28.40;32.70
21801;DHT22;11062;51.164;16.924;2023-12-28T03:51:46;28.50;32.80
21801;DHT22;11062;51.164;16.924;2023-12-28T03:54:12;28.40;32.90
21801;DHT22;11062;51.164;16.924;2023-12-28T03:56:38;28.30;32.80
21801;DHT22;11062;51.164;16.924;2023-12-28T03:59:06;28.30;33.00
21801;DHT22;11062;51.164;16.924;2023-12-28T04:01:32;28.30;33.00
21801;DHT22;11062;51.164;16.924;2023-12-28T04:03:58;28.30;33.10
21801;DHT22;11062;51.164;16.924;2023-12-28T04:06:24;28.30;33.30
21801;DHT22;11062;51.164;16.924;2023-12-28T04:08:50;28.30;33.40
21801;DHT22;11062;51.164;16.924;2023-12-28T04:11:15;28.30;33.30
21801;DHT22;11062;51.164;16.924;2023-12-28T04:13:41;28.30;33.80
21801;DHT22;11062;51.164;16.924;2023-12-28T04:16:07;28.30;33.00
21801;DHT22;11062;51.164;16.924;2023-12-28T04:18:35;28.30;33.00
21801;DHT22;11062;51.164;16.924;2023-12-28T04:21:00;28.30;32.80
21801;DHT22;11062;51.164;16.924;2023-12-28T04:23:26;28.30;32.80
21801;DHT22;11062;51.164;16.924;2023-12-28T04:25:51;28.30;32.80
21801;DHT22;11062;51.164;16.924;2023-12-28T04:28:17;28.30;32.80
21801;DHT22;11062;51.164;16.924;2023-12-28T04:30:43;28.30;32.80
21801;DHT22;11062;51.164;16.924;2023-12-28T04:33:09;28.30;32.70
21801;DHT22;11062;51.164;16.924;2023-12-28T04:35:34;28.30;32.90
21801;DHT22;11062;51.164;16.924;2023-12-28T04:38:00;28.30;32.80
21801;DHT22;11062;51.164;16.924;2023-12-28T04:40:26;28.30;32.90
21801;DHT22;11062;51.164;16.924;2023-12-28T04:42:51;28.20;32.90
21801;DHT22;11062;51.164;16.924;2023-12-28T04:45:17;28.20;32.90
21801;DHT22;11062;51.164;16.924;2023-12-28T04:47:43;28.20;32.80
21801;DHT22;11062;51.164;16.924;2023-12-28T04:50:09;28.20;32.80
21801;DHT22;11062;51.164;16.924;2023-12-28T04:52:35;28.20;33.00
21801;DHT22;11062;51.164;16.924;2023-12-28T04:55:01;28.30;33.00
21801;DHT22;11062;51.164;16.924;2023-12-28T04:57:26;28.20;33.00
21801;DHT22;11062;51.164;16.924;2023-12-28T04:59:53;28.20;33.00
21801;DHT22;11062;51.164;16.924;2023-12-28T05:02:19;28.20;33.20
21801;DHT22;11062;51.164;16.924;2023-12-28T05:04:45;28.20;33.00
21801;DHT22;11062;51.164;16.924;2023-12-28T05:07:11;28.20;33.10
21801;DHT22;11062;51.164;16.924;2023-12-28T05:09:36;28.20;33.30
21801;DHT22;11062;51.164;16.924;2023-12-28T05:12:03;28.20;33.10
21801;DHT22;11062;51.164;16.924;2023-12-28T05:14:28;28.10;33.00
21801;DHT22;11062;51.164;16.924;2023-12-28T05:16:54;28.10;33.00
21801;DHT22;11062;51.164;16.924;2023-12-28T05:19:20;28.10;32.80
21801;DHT22;11062;51.164;16.924;2023-12-28T05:21:46;28.10;32.80
21801;DHT22;11062;51.164;16.924;2023-12-28T05:24:12;28.10;32.70
21801;DHT22;11062;51.164;16.924;2023-12-28T05:26:38;28.10;32.90
21801;DHT22;11062;51.164;16.924;2023-12-28T05:29:04;28.10;32.80
21801;DHT22;11062;51.164;16.924;2023-12-28T05:31:29;28.10;32.90
21801;DHT22;11062;51.164;16.924;2023-12-28T05:33:55;28.10;32.80
21801;DHT22;11062;51.164;16.924;2023-12-28T05:36:22;28.00;32.70
21801;DHT22;11062;51.164;16.924;2023-12-28T05:38:48;28.00;32.90
21801;DHT22;11062;51.164;16.924;2023-12-28T05:41:13;28.00;33.00
21801;DHT22;11062;51.164;16.924;2023-12-28T05:43:39;28.00;33.20
21801;DHT22;11062;51.164;16.924;2023-12-28T05:46:05;28.00;33.10
21801;DHT22;11062;51.164;16.924;2023-12-28T05:48:31;28.00;33.00
21801;DHT22;11062;51.164;16.924;2023-12-28T05:50:57;27.90;33.00
21801;DHT22;11062;51.164;16.924;2023-12-28T05:53:26;28.00;33.50
21801;DHT22;11062;51.164;16.924;2023-12-28T05:55:53;28.00;33.40
21801;DHT22;11062;51.164;16.924;2023-12-28T05:58:19;28.00;33.10
21801;DHT22;11062;51.164;16.924;2023-12-28T06:00:45;28.00;33.30
21801;DHT22;11062;51.164;16.924;2023-12-28T06:03:13;28.10;33.10
21801;DHT22;11062;51.164;16.924;2023-12-28T06:05:39;28.10;33.00
21801;DHT22;11062;51.164;16.924;2023-12-28T06:08:05;28.10;32.80
21801;DHT22;11062;51.164;16.924;2023-12-28T06:10:31;28.10;33.20
21801;DHT22;11062;51.164;16.924;2023-12-28T06:12:57;28.20;34.10
21801;DHT22;11062;51.164;16.924;2023-12-28T06:15:22;28.20;34.40
21801;DHT22;11062;51.164;16.924;2023-12-28T06:17:48;28.20;34.60
21801;DHT22;11062;51.164;16.924;2023-12-28T06:20:14;28.20;34.60
21801;DHT22;11062;51.164;16.924;2023-12-28T06:22:39;28.00;34.70
21801;DHT22;11062;51.164;16.924;2023-12-28T06:25:06;28.00;35.10
21801;DHT22;11062;51.164;16.924;2023-12-28T06:27:32;28.00;35.30
21801;DHT22;11062;51.164;16.924;2023-12-28T06:29:58;28.10;35.30
21801;DHT22;11062;51.164;16.924;2023-12-28T06:32:24;28.00;35.30
21801;DHT22;11062;51.164;16.924;2023-12-28T06:34:50;28.30;35.40
21801;DHT22;11062;51.164;16.924;2023-12-28T06:37:15;28.20;35.10
21801;DHT22;11062;51.164;16.924;2023-12-28T06:39:41;28.20;35.00
21801;DHT22;11062;51.164;16.924;2023-12-28T06:42:07;28.30;35.00
21801;DHT22;11062;51.164;16.924;2023-12-28T06:44:33;28.60;35.10
21801;DHT22;11062;51.164;16.924;2023-12-28T06:46:59;28.60;34.70
21801;DHT22;11062;51.164;16.924;2023-12-28T06:49:25;28.80;34.70
21801;DHT22;11062;51.164;16.924;2023-12-28T06:51:51;28.90;34.30
21801;DHT22;11062;51.164;16.924;2023-12-28T06:54:17;28.80;34.00
21801;DHT22;11062;51.164;16.924;2023-12-28T06:56:43;28.80;34.00
21801;DHT22;11062;51.164;16.924;2023-12-28T06:59:09;28.60;34.30
21801;DHT22;11062;51.164;16.924;2023-12-28T07:01:40;28.90;34.10
21801;DHT22;11062;51.164;16.924;2023-12-28T07:04:06;29.00;33.70
21801;DHT22;11062;51.164;16.924;2023-12-28T07:06:32;29.20;33.70
21801;DHT22;11062;51.164;16.924;2023-12-28T07:08:58;29.00;34.40
21801;DHT22;11062;51.164;16.924;2023-12-28T07:11:24;29.30;33.60
21801;DHT22;11062;51.164;16.924;2023-12-28T07:13:49;29.40;33.50
21801;DHT22;11062;51.164;16.924;2023-12-28T07:16:15;29.30;33.30
21801;DHT22;11062;51.164;16.924;2023-12-28T07:18:41;29.50;33.60
21801;DHT22;11062;51.164;16.924;2023-12-28T07:21:07;29.40;33.40
21801;DHT22;11062;51.164;16.924;2023-12-28T07:23:37;29.70;33.40
21801;DHT22;11062;51.164;16.924;2023-12-28T07:26:03;29.90;33.10
21801;DHT22;11062;51.164;16.924;2023-12-28T07:28:29;30.00;32.80
21801;DHT22;11062;51.164;16.924;2023-12-28T07:30:54;30.10;33.00
21801;DHT22;11062;51.164;16.924;2023-12-28T07:33:20;30.00;32.70
21801;DHT22;11062;51.164;16.924;2023-12-28T07:35:47;29.80;32.60
21801;DHT22;11062;51.164;16.924;2023-12-28T07:38:13;29.70;32.80
21801;DHT22;11062;51.164;16.924;2023-12-28T07:40:38;29.40;32.70
21801;DHT22;11062;51.164;16.924;2023-12-28T07:43:04;29.70;33.00
21801;DHT22;11062;51.164;16.924;2023-12-28T07:45:30;29.70;32.90
21801;DHT22;11062;51.164;16.924;2023-12-28T07:47:56;29.60;32.80
21801;DHT22;11062;51.164;16.924;2023-12-28T07:50:22;29.50;32.70
21801;DHT22;11062;51.164;16.924;2023-12-28T07:52:48;29.70;32.50
21801;DHT22;11062;51.164;16.924;2023-12-28T07:55:14;29.40;32.70
21801;DHT22;11062;51.164;16.924;2023-12-28T07:57:40;28.90;32.50
21801;DHT22;11062;51.164;16.924;2023-12-28T08:00:07;28.90;33.00
21801;DHT22;11062;51.164;16.924;2023-12-28T08:02:33;29.20;33.40
21801;DHT22;11062;51.164;16.924;2023-12-28T08:04:59;29.20;33.20
21801;DHT22;11062;51.164;16.924;2023-12-28T08:07:25;29.60;33.20
21801;DHT22;11062;51.164;16.924;2023-12-28T08:09:50;29.60;33.00
21801;DHT22;11062;51.164;16.924;2023-12-28T08:12:16;29.60;32.70
21801;DHT22;11062;51.164;16.924;2023-12-28T08:14:43;29.50;33.10
21801;DHT22;11062;51.164;16.924;2023-12-28T08:17:09;29.40;33.10
21801;DHT22;11062;51.164;16.924;2023-12-28T08:19:35;29.70;33.10
21801;DHT22;11062;51.164;16.924;2023-12-28T08:22:01;29.90;33.00
21801;DHT22;11062;51.164;16.924;2023-12-28T08:24:28;29.80;32.60
21801;DHT22;11062;51.164;16.924;2023-12-28T08:26:53;29.90;32.70
21801;DHT22;11062;51.164;16.924;2023-12-28T08:29:20;30.00;32.80
21801;DHT22;11062;51.164;16.924;2023-12-28T08:31:45;30.10;32.60
21801;DHT22;11062;51.164;16.924;2023-12-28T08:34:11;30.50;32.50
21801;DHT22;11062;51.164;16.924;2023-12-28T08:36:37;30.60;32.30
21801;DHT22;11062;51.164;16.924;2023-12-28T08:39:03;30.90;32.20
21801;DHT22;11062;51.164;16.924;2023-12-28T08:41:29;30.90;31.90
21801;DHT22;11062;51.164;16.924;2023-12-28T08:43:55;30.90;31.90
21801;DHT22;11062;51.164;16.924;2023-12-28T08:46:24;30.70;31.90
21801;DHT22;11062;51.164;16.924;2023-12-28T08:48:52;30.80;32.10
21801;DHT22;11062;51.164;16.924;2023-12-28T08:51:18;30.90;32.00
21801;DHT22;11062;51.164;16.924;2023-12-28T08:53:44;31.20;32.00
21801;DHT22;11062;51.164;16.924;2023-12-28T08:56:17;31.30;31.60
21801;DHT22;11062;51.164;16.924;2023-12-28T08:58:47;31.50;31.60
21801;DHT22;11062;51.164;16.924;2023-12-28T09:01:23;31.70;32.40
21801;DHT22;11062;51.164;16.924;2023-12-28T09:03:51;31.50;31.70
21801;DHT22;11062;51.164;16.924;2023-12-28T09:06:18;31.30;32.30
21801;DHT22;11062;51.164;16.924;2023-12-28T09:08:45;31.30;32.10
21801;DHT22;11062;51.164;16.924;2023-12-28T09:11:13;31.30;32.30
21801;DHT22;11062;51.164;16.924;2023-12-28T09:13:39;31.60;32.40
21801;DHT22;11062;51.164;16.924;2023-12-28T09:16:07;31.50;32.10
21801;DHT22;11062;51.164;16.924;2023-12-28T09:18:33;31.10;32.10
21801;DHT22;11062;51.164;16.924;2023-12-28T09:20:59;30.50;32.20
21801;DHT22;11062;51.164;16.924;2023-12-28T09:23:25;30.60;32.60
21801;DHT22;11062;51.164;16.924;2023-12-28T09:25:50;30.70;33.30
21801;DHT22;11062;51.164;16.924;2023-12-28T09:28:16;30.80;32.70
21801;DHT22;11062;51.164;16.924;2023-12-28T09:30:42;31.20;32.80
21801;DHT22;11062;51.164;16.924;2023-12-28T09:33:07;31.20;32.20
21801;DHT22;11062;51.164;16.924;2023-12-28T09:35:33;31.20;32.30
21801;DHT22;11062;51.164;16.924;2023-12-28T09:37:59;31.20;32.30
21801;DHT22;11062;51.164;16.924;2023-12-28T09:40:25;31.50;32.70
21801;DHT22;11062;51.164;16.924;2023-12-28T09:43:03;31.40;32.50
21801;DHT22;11062;51.164;16.924;2023-12-28T09:45:31;31.50;32.30
21801;DHT22;11062;51.164;16.924;2023-12-28T09:47:56;31.50;32.40
21801;DHT22;11062;51.164;16.924;2023-12-28T09:50:22;31.40;32.50
21801;DHT22;11062;51.164;16.924;2023-12-28T09:52:52;31.10;32.50
21801;DHT22;11062;51.164;16.924;2023-12-28T09:55:18;31.10;32.50
21801;DHT22;11062;51.164;16.924;2023-12-28T09:57:45;31.10;32.80
21801;DHT22;11062;51.164;16.924;2023-12-28T10:00:12;31.40;32.70
21801;DHT22;11062;51.164;16.924;2023-12-28T10:02:40;31.40;32.50
21801;DHT22;11062;51.164;16.924;2023-12-28T10:05:12;31.50;32.80
21801;DHT22;11062;51.164;16.924;2023-12-28T10:07:45;31.70;32.50
21801;DHT22;11062;51.164;16.924;2023-12-28T10:10:11;31.80;32.50
21801;DHT22;11062;51.164;16.924;2023-12-28T10:12:40;31.90;32.60
21801;DHT22;11062;51.164;16.924;2023-12-28T10:15:06;32.30;32.80
21801;DHT22;11062;51.164;16.924;2023-12-28T10:17:34;32.30;32.70
21801;DHT22;11062;51.164;16.924;2023-12-28T10:20:03;32.20;32.70
21801;DHT22;11062;51.164;16.924;2023-12-28T10:22:31;32.00;32.80
21801;DHT22;11062;51.164;16.924;2023-12-28T10:24:58;32.20;32.90
21801;DHT22;11062;51.164;16.924;2023-12-28T10:27:26;32.40;32.90
21801;DHT22;11062;51.164;16.924;2023-12-28T10:29:56;32.40;32.80
21801;DHT22;11062;51.164;16.924;2023-12-28T10:32:25;32.60;32.90
21801;DHT22;11062;51.164;16.924;2023-12-28T10:34:52;32.70;33.00
21801;DHT22;11062;51.164;16.924;2023-12-28T10:37:20;32.60;32.90
21801;DHT22;11062;51.164;16.924;2023-12-28T10:39:47;32.40;32.70
21801;DHT22;11062;51.164;16.924;2023-12-28T10:44:52;32.00;33.40
21801;DHT22;11062;51.164;16.924;2023-12-28T10:47:19;31.90;34.40
21801;DHT22;11062;51.164;16.924;2023-12-28T10:49:48;32.00;34.00
21801;DHT22;11062;51.164;16.924;2023-12-28T10:52:19;32.30;33.90
21801;DHT22;11062;51.164;16.924;2023-12-28T10:55:21;32.20;33.80
21801;DHT22;11062;51.164;16.924;2023-12-28T10:58:10;32.20;33.90
21801;DHT22;11062;51.164;16.924;2023-12-28T11:00:41;31.60;34.00
21801;DHT22;11062;51.164;16.924;2023-12-28T11:03:11;31.70;34.50
21801;DHT22;11062;51.164;16.924;2023-12-28T11:05:37;31.60;34.70
21801;DHT22;11062;51.164;16.924;2023-12-28T11:08:06;31.40;34.40
21801;DHT22;11062;51.164;16.924;2023-12-28T11:10:34;31.40;34.80
21801;DHT22;11062;51.164;16.924;2023-12-28T11:13:01;31.50;35.00
21801;DHT22;11062;51.164;16.924;2023-12-28T11:15:28;31.50;34.80
21801;DHT22;11062;51.164;16.924;2023-12-28T11:17:55;31.70;34.60
21801;DHT22;11062;51.164;16.924;2023-12-28T11:20:21;31.30;34.70
21801;DHT22;11062;51.164;16.924;2023-12-28T11:22:48;31.40;35.10
21801;DHT22;11062;51.164;16.924;2023-12-28T11:25:15;31.40;35.30
21801;DHT22;11062;51.164;16.924;2023-12-28T11:27:41;31.40;35.20
21801;DHT22;11062;51.164;16.924;2023-12-28T11:30:10;31.50;35.20
21801;DHT22;11062;51.164;16.924;2023-12-28T11:32:36;31.70;35.00
21801;DHT22;11062;51.164;16.924;2023-12-28T11:35:02;31.50;34.90
21801;DHT22;11062;51.164;16.924;2023-12-28T11:37:29;31.50;35.10
21801;DHT22;11062;51.164;16.924;2023-12-28T11:39:56;31.70;35.10
21801;DHT22;11062;51.164;16.924;2023-12-28T11:42:23;31.20;35.00
21801;DHT22;11062;51.164;16.924;2023-12-28T11:44:54;31.50;35.30
21801;DHT22;11062;51.164;16.924;2023-12-28T11:47:25;31.60;35.40
21801;DHT22;11062;51.164;16.924;2023-12-28T11:49:52;31.60;35.00
21801;DHT22;11062;51.164;16.924;2023-12-28T11:52:30;31.60;35.00
21801;DHT22;11062;51.164;16.924;2023-12-28T11:54:58;31.60;34.90
21801;DHT22;11062;51.164;16.924;2023-12-28T11:57:25;31.50;35.10
21801;DHT22;11062;51.164;16.924;2023-12-28T11:59:58;31.60;35.10
21801;DHT22;11062;51.164;16.924;2023-12-28T12:02:25;31.80;35.40
21801;DHT22;11062;51.164;16.924;2023-12-28T12:04:51;31.90;35.10
21801;DHT22;11062;51.164;16.924;2023-12-28T12:07:16;32.10;35.00
21801;DHT22;11062;51.164;16.924;2023-12-28T12:09:43;32.40;35.10
21801;DHT22;11062;51.164;16.924;2023-12-28T12:12:09;32.60;35.00
21801;DHT22;11062;51.164;16.924;2023-12-28T12:14:35;32.80;34.90
21801;DHT22;11062;51.164;16.924;2023-12-28T12:17:01;32.90;34.70
21801;DHT22;11062;51.164;16.924;2023-12-28T12:19:27;33.10;34.60
21801;DHT22;11062;51.164;16.924;2023-12-28T12:21:54;33.10;34.40
21801;DHT22;11062;51.164;16.924;2023-12-28T12:24:21;33.10;34.20
21801;DHT22;11062;51.164;16.924;2023-12-28T12:26:47;33.00;34.30
21801;DHT22;11062;51.164;16.924;2023-12-28T12:29:13;33.10;34.30
21801;DHT22;11062;51.164;16.924;2023-12-28T12:31:43;33.30;34.20
21801;DHT22;11062;51.164;16.924;2023-12-28T12:34:10;33.20;33.90
21801;DHT22;11062;51.164;16.924;2023-12-28T12:36:37;33.00;34.00
21801;DHT22;11062;51.164;16.924;2023-12-28T12:39:03;32.80;34.10
21801;DHT22;11062;51.164;16.924;2023-12-28T12:41:35;32.70;33.90
21801;DHT22;11062;51.164;16.924;2023-12-28T12:44:01;32.60;34.30
21801;DHT22;11062;51.164;16.924;2023-12-28T12:46:27;32.40;34.40
21801;DHT22;11062;51.164;16.924;2023-12-28T12:48:55;32.60;34.30
21801;DHT22;11062;51.164;16.924;2023-12-28T12:51:22;32.70;34.20
21801;DHT22;11062;51.164;16.924;2023-12-28T12:53:47;32.70;34.10
21801;DHT22;11062;51.164;16.924;2023-12-28T12:56:13;32.80;34.20
21801;DHT22;11062;51.164;16.924;2023-12-28T12:58:39;33.00;34.80
21801;DHT22;11062;51.164;16.924;2023-12-28T13:01:05;32.90;33.90
21801;DHT22;11062;51.164;16.924;2023-12-28T13:03:30;33.10;33.90
21801;DHT22;11062;51.164;16.924;2023-12-28T13:05:56;33.10;33.90
21801;DHT22;11062;51.164;16.924;2023-12-28T13:08:22;33.20;33.90
21801;DHT22;11062;51.164;16.924;2023-12-28T13:10:48;33.20;33.80
21801;DHT22;11062;51.164;16.924;2023-12-28T13:13:15;33.30;33.80
21801;DHT22;11062;51.164;16.924;2023-12-28T13:15:41;33.30;33.90
21801;DHT22;11062;51.164;16.924;2023-12-28T13:18:07;33.30;33.80
21801;DHT22;11062;51.164;16.924;2023-12-28T13:20:32;33.40;33.70
21801;DHT22;11062;51.164;16.924;2023-12-28T13:22:58;33.50;33.80
21801;DHT22;11062;51.164;16.924;2023-12-28T13:25:24;33.40;33.70
21801;DHT22;11062;51.164;16.924;2023-12-28T13:27:50;33.50;33.80
21801;DHT22;11062;51.164;16.924;2023-12-28T13:30:15;33.50;33.70
21801;DHT22;11062;51.164;16.924;2023-12-28T13:32:41;33.40;33.60
21801;DHT22;11062;51.164;16.924;2023-12-28T13:35:07;33.40;33.60
21801;DHT22;11062;51.164;16.924;2023-12-28T13:37:33;33.40;33.60
21801;DHT22;11062;51.164;16.924;2023-12-28T13:39:58;33.50;33.70
21801;DHT22;11062;51.164;16.924;2023-12-28T13:42:24;33.50;33.50
21801;DHT22;11062;51.164;16.924;2023-12-28T13:44:50;33.50;33.60
21801;DHT22;11062;51.164;16.924;2023-12-28T13:47:15;33.50;33.60
21801;DHT22;11062;51.164;16.924;2023-12-28T13:49:41;33.40;33.50
21801;DHT22;11062;51.164;16.924;2023-12-28T13:52:08;33.40;33.50
21801;DHT22;11062;51.164;16.924;2023-12-28T13:54:34;33.10;33.40
21801;DHT22;11062;51.164;16.924;2023-12-28T13:57:00;33.10;33.50
21801;DHT22;11062;51.164;16.924;2023-12-28T13:59:26;33.10;33.60
21801;DHT22;11062;51.164;16.924;2023-12-28T14:01:51;32.90;33.50
21801;DHT22;11062;51.164;16.924;2023-12-28T14:04:17;33.00;33.50
21801;DHT22;11062;51.164;16.924;2023-12-28T14:06:43;32.90;33.50
21801;DHT22;11062;51.164;16.924;2023-12-28T14:09:09;32.90;33.60
21801;DHT22;11062;51.164;16.924;2023-12-28T14:11:34;32.90;33.40
21801;DHT22;11062;51.164;16.924;2023-12-28T14:14:00;32.80;33.30
21801;DHT22;11062;51.164;16.924;2023-12-28T14:16:26;32.80;33.40
21801;DHT22;11062;51.164;16.924;2023-12-28T14:18:51;32.80;33.30
21801;DHT22;11062;51.164;16.924;2023-12-28T14:21:18;32.80;33.20
21801;DHT22;11062;51.164;16.924;2023-12-28T14:23:44;32.70;33.10
21801;DHT22;11062;51.164;16.924;2023-12-28T14:26:14;32.60;33.10
21801;DHT22;11062;51.164;16.924;2023-12-28T14:28:44;32.80;33.40
21801;DHT22;11062;51.164;16.924;2023-12-28T14:31:11;32.80;33.30
21801;DHT22;11062;51.164;16.924;2023-12-28T14:33:37;32.90;33.30
21801;DHT22;11062;51.164;16.924;2023-12-28T14:38:41;33.10;33.20
21801;DHT22;11062;51.164;16.924;2023-12-28T14:41:06;33.00;33.10
21801;DHT22;11062;51.164;16.924;2023-12-28T14:43:41;33.00;33.00
21801;DHT22;11062;51.164;16.924;2023-12-28T14:46:26;33.20;33.10
21801;DHT22;11062;51.164;16.924;2023-12-28T14:48:52;33.10;33.00
21801;DHT22;11062;51.164;16.924;2023-12-28T14:51:18;33.20;32.90
21801;DHT22;11062;51.164;16.924;2023-12-28T14:53:44;33.20;32.90
21801;DHT22;11062;51.164;16.924;2023-12-28T14:56:10;33.30;32.90
21801;DHT22;11062;51.164;16.924;2023-12-28T14:58:38;33.20;32.90
21801;DHT22;11062;51.164;16.924;2023-12-28T15:01:03;33.10;32.90
21801;DHT22;11062;51.164;16.924;2023-12-28T15:03:29;33.10;33.00
21801;DHT22;11062;51.164;16.924;2023-12-28T15:05:55;33.00;33.00
21801;DHT22;11062;51.164;16.924;2023-12-28T15:08:23;32.90;33.10
21801;DHT22;11062;51.164;16.924;2023-12-28T15:10:49;32.90;33.20
21801;DHT22;11062;51.164;16.924;2023-12-28T15:13:15;32.80;33.20
21801;DHT22;11062;51.164;16.924;2023-12-28T15:15:43;32.80;33.30
21801;DHT22;11062;51.164;16.924;2023-12-28T15:18:09;32.80;33.40